Mount Tabor, Arkansas
Current Conditions -  °F | °C
As of 4:53 PM on Thursday 18 Dec 2014 (Local Time) from KLLQ Reporting Station
Overcast Overcast  
Wind Chill: 47°   Ceiling: 1200
Heat Index: 49°   Visibility: 10mi
Dew Point: 44°   Wind: 5mph
Humidity: 83%   Direction: 40°NE
Pressure: 30.16"   Gusts: NA
Location:  33.5819°N, 91.7907°W
Report Text: KLLQ 182253Z AUTO 04004KT 10SM OVC012 09/07 A3016 RMK AO2 SLP212 T00940067
Loading
Personal Weather Stations






























Interactive Weather Map New forecast layout! Learn more

10-Day Weather Forecast

Advertisements
Track Severe Weather on mobile